createdAt,value
2019-02-06T00:00:09.745Z,20.32
2019-02-06T00:00:41.768Z,20.32
2019-02-06T00:01:13.785Z,20.37
2019-02-06T00:01:45.820Z,20.35
2019-02-06T00:02:18.710Z,20.32
2019-02-06T00:02:50.744Z,20.26
2019-02-06T00:03:23.734Z,20.27
2019-02-06T00:03:55.793Z,20.35
2019-02-06T00:04:27.848Z,20.26
2019-02-06T00:04:59.851Z,20.25
2019-02-06T00:05:31.984Z,20.26
2019-02-06T00:06:04.081Z,20.34
2019-02-06T00:06:36.244Z,20.27
2019-02-06T00:07:08.350Z,20.34
2019-02-06T00:07:40.385Z,20.35
2019-02-06T00:08:12.499Z,20.22
2019-02-06T00:08:44.563Z,20.25
2019-02-06T00:09:17.577Z,20.34
2019-02-06T00:09:49.655Z,20.25
2019-02-06T00:10:23.138Z,20.27
2019-02-06T00:10:55.200Z,20.25
2019-02-06T00:11:27.303Z,20.38
2019-02-06T00:11:59.425Z,20.38
2019-02-06T00:12:31.677Z,20.27
2019-02-06T00:13:03.742Z,20.26
2019-02-06T00:13:35.848Z,20.26
2019-02-06T00:14:07.996Z,20.35
2019-02-06T00:14:40.154Z,20.25
2019-02-06T00:15:12.267Z,20.25
2019-02-06T00:15:44.424Z,20.29
2019-02-06T00:16:17.292Z,20.25
2019-02-06T00:16:49.494Z,20.27
2019-02-06T00:17:23.007Z,20.35
2019-02-06T00:17:55.240Z,20.35
2019-02-06T00:18:27.505Z,20.27
2019-02-06T00:18:59.709Z,20.38
2019-02-06T00:19:31.954Z,20.37
2019-02-06T00:20:03.948Z,20.35
2019-02-06T00:20:35.961Z,20.25
2019-02-06T00:21:07.969Z,20.3
2019-02-06T00:21:39.976Z,20.34
2019-02-06T00:22:12.076Z,20.35
2019-02-06T00:22:44.065Z,20.3
2019-02-06T00:23:16.085Z,20.26
2019-02-06T00:23:48.083Z,20.26
2019-02-06T00:24:20.463Z,20.26
2019-02-06T00:24:52.465Z,20.26
2019-02-06T00:25:25.970Z,20.26
2019-02-06T00:25:58.050Z,20.25
2019-02-06T00:26:30.073Z,20.32
2019-02-06T00:27:02.084Z,20.27
2019-02-06T00:27:34.119Z,20.26
2019-02-06T00:28:06.126Z,20.25
2019-02-06T00:28:38.160Z,20.37
2019-02-06T00:29:10.188Z,20.25
2019-02-06T00:29:42.231Z,20.34
2019-02-06T00:30:14.246Z,20.35
2019-02-06T00:30:46.304Z,20.26
2019-02-06T00:31:18.333Z,20.37
2019-02-06T00:31:50.460Z,20.23
2019-02-06T00:32:22.621Z,20.23
2019-02-06T00:32:54.625Z,20.22
2019-02-06T00:33:28.170Z,20.35
2019-02-06T00:34:00.165Z,20.26
2019-02-06T00:34:32.209Z,20.22
2019-02-06T00:35:04.198Z,20.25
2019-02-06T00:35:36.198Z,20.32
2019-02-06T00:36:08.212Z,20.25
2019-02-06T00:36:40.206Z,20.35
2019-02-06T00:37:12.229Z,20.34
2019-02-06T00:37:44.239Z,20.34
2019-02-06T00:38:16.226Z,20.35
2019-02-06T00:38:48.239Z,20.25
2019-02-06T00:39:20.260Z,20.38
2019-02-06T00:39:52.287Z,20.23
2019-02-06T00:40:24.328Z,20.34
2019-02-06T00:40:56.348Z,20.29
2019-02-06T00:41:30.077Z,20.22
2019-02-06T00:42:02.120Z,20.25
2019-02-06T00:42:34.681Z,20.25
2019-02-06T00:43:06.687Z,20.26
2019-02-06T00:43:38.714Z,20.25
2019-02-06T00:44:10.724Z,20.3
2019-02-06T00:44:42.728Z,20.3
2019-02-06T00:45:14.723Z,20.25
2019-02-06T00:45:46.728Z,20.3
2019-02-06T00:46:18.729Z,20.34
2019-02-06T00:46:50.729Z,20.29
2019-02-06T00:47:22.749Z,20.27
2019-02-06T00:47:54.756Z,20.26
2019-02-06T00:48:27.146Z,20.26
2019-02-06T00:48:59.150Z,20.37
2019-02-06T00:49:32.524Z,20.27
2019-02-06T00:50:04.531Z,20.22
2019-02-06T00:50:37.119Z,20.25
2019-02-06T00:51:09.124Z,20.26
2019-02-06T00:51:41.151Z,20.27
2019-02-06T00:52:13.160Z,20.25
2019-02-06T00:52:45.194Z,20.29
2019-02-06T00:53:17.206Z,20.26
2019-02-06T00:53:49.205Z,20.3
2019-02-06T00:54:21.198Z,20.26
2019-02-06T00:54:53.234Z,20.26
2019-02-06T00:55:25.238Z,20.23
2019-02-06T00:55:57.247Z,20.25
2019-02-06T00:56:29.627Z,20.23
2019-02-06T00:57:01.646Z,20.29
2019-02-06T00:57:35.249Z,20.29
2019-02-06T00:58:07.253Z,20.29
2019-02-06T00:58:39.299Z,20.27
2019-02-06T00:59:11.324Z,20.25
2019-02-06T00:59:43.320Z,20.25
2019-02-06T01:00:15.463Z,20.37
2019-02-06T01:00:47.481Z,20.22
2019-02-06T01:01:19.487Z,20.23
2019-02-06T01:01:51.567Z,20.26
2019-02-06T01:02:23.584Z,20.23
2019-02-06T01:02:55.592Z,20.26
2019-02-06T01:03:27.745Z,20.2
2019-02-06T01:03:59.752Z,20.23
2019-02-06T01:04:32.137Z,20.25
2019-02-06T01:05:04.147Z,20.25
2019-02-06T01:05:38.798Z,20.35
2019-02-06T01:06:11.035Z,20.22
2019-02-06T01:06:43.893Z,20.25
2019-02-06T01:07:15.884Z,20.35
2019-02-06T01:07:47.894Z,20.3
2019-02-06T01:08:19.937Z,20.2
2019-02-06T01:08:52.004Z,20.26
2019-02-06T01:09:24.014Z,20.37
2019-02-06T01:09:56.065Z,20.25
2019-02-06T01:10:28.066Z,20.23
2019-02-06T01:11:00.061Z,20.23
2019-02-06T01:11:32.049Z,20.35
2019-02-06T01:12:04.072Z,20.25
2019-02-06T01:12:36.591Z,20.22
2019-02-06T01:13:08.580Z,20.23
2019-02-06T01:13:42.233Z,20.27
2019-02-06T01:14:14.266Z,20.25
2019-02-06T01:14:46.253Z,20.25
2019-02-06T01:15:18.241Z,20.25
2019-02-06T01:15:50.243Z,20.26
2019-02-06T01:16:22.290Z,20.34
2019-02-06T01:16:54.375Z,20.26
2019-02-06T01:17:26.496Z,20.22
2019-02-06T01:17:58.515Z,20.23
2019-02-06T01:18:30.520Z,20.22
2019-02-06T01:19:02.562Z,20.26
2019-02-06T01:19:34.576Z,20.26
2019-02-06T01:20:06.594Z,20.37
2019-02-06T01:20:39.705Z,20.27
2019-02-06T01:21:11.717Z,20.37
2019-02-06T01:21:45.264Z,20.22
2019-02-06T01:22:17.274Z,20.27
2019-02-06T01:22:49.285Z,20.22
2019-02-06T01:23:21.270Z,20.22
2019-02-06T01:23:53.282Z,20.23
2019-02-06T01:24:25.284Z,20.26
2019-02-06T01:24:57.285Z,20.29
2019-02-06T01:25:29.309Z,20.25
2019-02-06T01:26:01.315Z,20.22
2019-02-06T01:26:33.304Z,20.26
2019-02-06T01:27:05.312Z,20.29
2019-02-06T01:27:37.303Z,20.29
2019-02-06T01:28:09.300Z,20.23
2019-02-06T01:28:42.976Z,20.22
2019-02-06T01:29:14.972Z,20.25
2019-02-06T01:29:47.307Z,20.35
2019-02-06T01:30:19.313Z,20.32
2019-02-06T01:30:51.317Z,20.32
2019-02-06T01:31:23.320Z,20.26
2019-02-06T01:31:55.429Z,20.27
2019-02-06T01:32:27.447Z,20.25
2019-02-06T01:32:59.474Z,20.23
2019-02-06T01:33:31.511Z,20.25
2019-02-06T01:34:03.518Z,20.32
2019-02-06T01:34:35.519Z,20.37
2019-02-06T01:35:07.529Z,20.29
2019-02-06T01:35:49.395Z,20.3
2019-02-06T01:36:22.107Z,20.32
2019-02-06T01:36:54.122Z,20.23
2019-02-06T01:37:26.111Z,20.23
2019-02-06T01:37:58.674Z,20.23
2019-02-06T01:38:30.681Z,20.34
2019-02-06T01:39:04.306Z,20.29
2019-02-06T01:39:37.189Z,20.23
2019-02-06T01:40:09.225Z,20.3
2019-02-06T01:40:41.256Z,20.23
2019-02-06T01:41:13.275Z,20.23
2019-02-06T01:41:45.291Z,20.29
2019-02-06T01:42:17.297Z,20.27
2019-02-06T01:42:49.330Z,20.27
2019-02-06T01:43:21.475Z,20.23
2019-02-06T01:43:53.594Z,20.26
2019-02-06T01:44:25.575Z,20.3
2019-02-06T01:44:57.569Z,20.25
2019-02-06T01:45:29.585Z,20.23
2019-02-06T01:46:02.537Z,20.26
2019-02-06T01:46:34.680Z,20.32
2019-02-06T01:47:08.382Z,20.25
2019-02-06T01:47:40.461Z,20.25
2019-02-06T01:48:12.539Z,20.15
2019-02-06T01:48:44.579Z,20.25
2019-02-06T01:49:16.597Z,20.22
2019-02-06T01:49:48.607Z,20.18
2019-02-06T01:50:20.697Z,20.27
2019-02-06T01:50:52.810Z,20.27
2019-02-06T01:51:24.829Z,20.23
2019-02-06T01:51:56.827Z,20.19
2019-02-06T01:52:28.811Z,20.2
2019-02-06T01:53:00.818Z,20.27
2019-02-06T01:53:32.830Z,20.16
2019-02-06T01:54:05.925Z,20.2
2019-02-06T01:54:37.910Z,20.3
2019-02-06T01:55:11.192Z,20.25
2019-02-06T01:55:43.228Z,20.16
2019-02-06T01:56:15.256Z,20.27
2019-02-06T01:56:47.268Z,20.2
2019-02-06T01:57:19.271Z,20.2
2019-02-06T01:57:51.287Z,20.3
2019-02-06T01:58:23.321Z,20.16
2019-02-06T01:58:55.320Z,20.19
2019-02-06T01:59:27.344Z,20.23
2019-02-06T01:59:59.372Z,20.18
2019-02-06T02:00:31.409Z,20.2
2019-02-06T02:01:03.426Z,20.3
2019-02-06T02:01:35.440Z,20.16
2019-02-06T02:02:08.908Z,20.19
2019-02-06T02:02:40.925Z,20.23
2019-02-06T02:03:13.483Z,20.16
2019-02-06T02:03:45.505Z,20.26
2019-02-06T02:04:17.528Z,20.19
2019-02-06T02:04:49.554Z,20.2
2019-02-06T02:05:21.548Z,20.19
2019-02-06T02:06:01.619Z,20.2
2019-02-06T02:06:34.557Z,20.12
2019-02-06T02:07:06.577Z,20.2
2019-02-06T02:07:38.589Z,20.2
2019-02-06T02:08:10.591Z,20.19
2019-02-06T02:08:42.588Z,20.18
2019-02-06T02:09:14.597Z,20.2
2019-02-06T02:09:46.596Z,20.15
2019-02-06T02:10:18.598Z,20.15
2019-02-06T02:10:50.823Z,20.11
2019-02-06T02:11:23.662Z,20.12
2019-02-06T02:11:55.690Z,20.16
2019-02-06T02:12:29.238Z,20.19
2019-02-06T02:13:01.268Z,20.15
2019-02-06T02:13:33.341Z,20.16
2019-02-06T02:14:05.331Z,20.26
2019-02-06T02:14:37.338Z,20.1
2019-02-06T02:15:09.372Z,20.19
2019-02-06T02:15:41.363Z,20.2
2019-02-06T02:16:13.369Z,20.18
2019-02-06T02:16:45.475Z,20.12
2019-02-06T02:17:17.525Z,20.12
2019-02-06T02:17:49.656Z,20.15
2019-02-06T02:18:21.630Z,20.2
2019-02-06T02:18:53.633Z,20.12
2019-02-06T02:19:26.674Z,20.16
2019-02-06T02:19:58.692Z,20.18
2019-02-06T02:20:32.292Z,20.18
2019-02-06T02:21:04.308Z,20.19
2019-02-06T02:21:36.400Z,20.18
2019-02-06T02:22:08.399Z,20.23
2019-02-06T02:22:40.404Z,20.15
2019-02-06T02:23:12.425Z,20.15
2019-02-06T02:23:44.423Z,20.11
2019-02-06T02:24:16.542Z,20.12
2019-02-06T02:24:48.546Z,20.18
2019-02-06T02:25:20.554Z,20.19
2019-02-06T02:25:52.556Z,20.18
2019-02-06T02:26:24.549Z,20.2
2019-02-06T02:26:56.755Z,20.18
2019-02-06T02:27:29.640Z,20.18
2019-02-06T02:28:01.656Z,20.15
2019-02-06T02:28:35.273Z,20.22
2019-02-06T02:29:07.393Z,20.18
2019-02-06T02:29:39.432Z,20.16
2019-02-06T02:30:11.433Z,20.15
2019-02-06T02:30:43.484Z,20.11
2019-02-06T02:31:15.593Z,20.19
2019-02-06T02:31:47.597Z,20.2
2019-02-06T02:32:19.778Z,20.15
2019-02-06T02:32:51.804Z,20.2
2019-02-06T02:33:23.828Z,20.2
2019-02-06T02:33:55.977Z,20.18
2019-02-06T02:34:28.017Z,20.19
2019-02-06T02:35:00.058Z,20.18
2019-02-06T02:35:32.304Z,20.16
2019-02-06T02:36:14.793Z,20.16
2019-02-06T02:36:48.342Z,20.15
2019-02-06T02:37:20.370Z,20.18
2019-02-06T02:37:52.410Z,20.15
2019-02-06T02:38:24.403Z,20.15
2019-02-06T02:38:57.396Z,20.12
2019-02-06T02:39:29.558Z,20.15
2019-02-06T02:40:02.982Z,20.16
2019-02-06T02:40:34.991Z,20.22
2019-02-06T02:41:06.997Z,20.15
2019-02-06T02:41:39.017Z,20.16
2019-02-06T02:42:11.048Z,20.18
2019-02-06T02:42:43.081Z,20.16
2019-02-06T02:43:15.337Z,20.16
2019-02-06T02:43:47.415Z,20.15
2019-02-06T02:44:19.414Z,20.16
2019-02-06T02:44:51.431Z,20.15
2019-02-06T02:45:23.435Z,20.12
2019-02-06T02:45:55.446Z,20.16
2019-02-06T02:46:27.465Z,20.16
2019-02-06T02:47:00.661Z,20.15
2019-02-06T02:47:32.722Z,20.16
2019-02-06T02:48:06.172Z,20.19
2019-02-06T02:48:38.206Z,20.16
2019-02-06T02:49:10.215Z,20.18
2019-02-06T02:49:42.218Z,20.18
2019-02-06T02:50:14.225Z,20.19
2019-02-06T02:50:46.386Z,20.23
2019-02-06T02:51:18.376Z,20.15
2019-02-06T02:51:50.383Z,20.19
2019-02-06T02:52:22.387Z,20.23
2019-02-06T02:52:54.414Z,20.16
2019-02-06T02:53:26.609Z,20.15
2019-02-06T02:53:58.717Z,20.05
2019-02-06T02:54:30.719Z,20.15
2019-02-06T02:55:03.813Z,20.16
2019-02-06T02:55:35.869Z,20.16
2019-02-06T02:56:11.623Z,20.15
2019-02-06T02:56:43.625Z,20.16
2019-02-06T02:57:16.391Z,20.16
2019-02-06T02:57:48.404Z,20.15
2019-02-06T02:58:20.421Z,20.22
2019-02-06T02:58:52.445Z,20.16
2019-02-06T02:59:24.458Z,20.16
2019-02-06T02:59:56.522Z,20.19
2019-02-06T03:00:28.530Z,20.16
2019-02-06T03:01:00.541Z,20.18
2019-02-06T03:01:32.636Z,20.26
2019-02-06T03:02:04.654Z,20.18
2019-02-06T03:02:36.641Z,20.16
2019-02-06T03:03:08.666Z,20.16
2019-02-06T03:03:40.675Z,20.12
2019-02-06T03:04:14.194Z,20.16
2019-02-06T03:04:46.247Z,20.12
2019-02-06T03:05:19.118Z,20.19
2019-02-06T03:05:51.163Z,20.19
2019-02-06T03:06:27.951Z,20.12
2019-02-06T03:07:00.579Z,20.05
2019-02-06T03:07:32.592Z,20.1
2019-02-06T03:08:04.595Z,20.23
2019-02-06T03:08:36.664Z,20.22
2019-02-06T03:09:08.969Z,20.12
2019-02-06T03:09:40.986Z,20.16
2019-02-06T03:10:12.999Z,20.23
2019-02-06T03:10:45.030Z,20.18
2019-02-06T03:11:17.031Z,20.16
2019-02-06T03:11:49.073Z,20.22
2019-02-06T03:12:21.094Z,20.18
2019-02-06T03:12:53.099Z,20.16
2019-02-06T03:13:26.486Z,20.2
2019-02-06T03:13:58.485Z,20.12
2019-02-06T03:14:31.462Z,20.19
2019-02-06T03:15:03.494Z,20.2
2019-02-06T03:15:35.521Z,20.16
2019-02-06T03:16:07.542Z,20.16
2019-02-06T03:16:39.546Z,20.19
2019-02-06T03:17:11.553Z,20.11
2019-02-06T03:17:43.556Z,20.16
2019-02-06T03:18:15.652Z,20.2
2019-02-06T03:18:47.662Z,20.15
2019-02-06T03:19:19.660Z,20.18
2019-02-06T03:19:51.693Z,20.16
2019-02-06T03:20:23.719Z,20.22
2019-02-06T03:20:55.730Z,20.16
2019-02-06T03:21:28.895Z,20.18
2019-02-06T03:22:00.950Z,20.2
2019-02-06T03:22:33.187Z,20.16
2019-02-06T03:23:05.221Z,20.12
2019-02-06T03:23:37.233Z,20.18
2019-02-06T03:24:09.253Z,20.19
2019-02-06T03:24:41.260Z,20.16
2019-02-06T03:25:13.263Z,20.19
2019-02-06T03:25:45.266Z,20.2
2019-02-06T03:26:17.267Z,20.11
2019-02-06T03:26:49.299Z,20.11
2019-02-06T03:27:21.308Z,20.11
2019-02-06T03:27:53.358Z,20.15
2019-02-06T03:28:26.008Z,20.22
2019-02-06T03:28:58.042Z,20.2
2019-02-06T03:29:31.439Z,20.16
2019-02-06T03:30:03.434Z,20.23
2019-02-06T03:30:35.676Z,20.1
2019-02-06T03:31:07.837Z,20.15
2019-02-06T03:31:39.837Z,20.18
2019-02-06T03:32:11.879Z,20.18
2019-02-06T03:32:43.922Z,20.18
2019-02-06T03:33:16.027Z,20.18
2019-02-06T03:33:48.054Z,20.11
2019-02-06T03:34:20.085Z,20.1
2019-02-06T03:34:52.103Z,20.2
2019-02-06T03:35:24.155Z,20.12
2019-02-06T03:35:56.350Z,20.05
2019-02-06T03:36:39.768Z,20.11
2019-02-06T03:37:12.800Z,20.18
2019-02-06T03:37:44.859Z,20.07
2019-02-06T03:38:16.881Z,20.12
2019-02-06T03:38:48.936Z,20.15
2019-02-06T03:39:20.948Z,20.16
2019-02-06T03:39:54.254Z,20.05
2019-02-06T03:40:26.356Z,20.15
2019-02-06T03:40:59.517Z,20.18
2019-02-06T03:41:31.526Z,20.11
2019-02-06T03:42:03.568Z,20.16
2019-02-06T03:42:35.612Z,20.08
2019-02-06T03:43:07.614Z,20.15
2019-02-06T03:43:39.654Z,20.1
2019-02-06T03:44:11.663Z,20.07
2019-02-06T03:44:43.668Z,20.2
2019-02-06T03:45:15.679Z,20.16
2019-02-06T03:45:47.703Z,20.11
2019-02-06T03:46:19.708Z,20.05
2019-02-06T03:46:51.863Z,20.1
2019-02-06T03:47:23.868Z,20.1
2019-02-06T03:47:57.483Z,20.11
2019-02-06T03:48:29.601Z,20.2
2019-02-06T03:49:01.602Z,20.16
2019-02-06T03:49:33.617Z,20.05
2019-02-06T03:50:05.607Z,20.16
2019-02-06T03:50:37.617Z,20.1
2019-02-06T03:51:09.639Z,20.15
2019-02-06T03:51:41.741Z,20.11
2019-02-06T03:52:13.767Z,20.18
2019-02-06T03:52:45.780Z,20.15
2019-02-06T03:53:17.799Z,20.08
2019-02-06T03:53:49.804Z,20.07
2019-02-06T03:54:21.797Z,20.1
2019-02-06T03:54:54.632Z,20.08
2019-02-06T03:55:26.662Z,20.12
2019-02-06T03:56:00.294Z,20.18
2019-02-06T03:56:32.354Z,20.11
2019-02-06T03:57:04.384Z,20.11
2019-02-06T03:57:36.408Z,20.08
2019-02-06T03:58:08.430Z,20.04
2019-02-06T03:58:40.468Z,20.15
2019-02-06T03:59:12.691Z,20.1
2019-02-06T03:59:44.718Z,20.08
2019-02-06T04:00:16.888Z,20.07
2019-02-06T04:00:49.034Z,20.07
2019-02-06T04:01:21.027Z,20.07
2019-02-06T04:01:53.094Z,20.07
2019-02-06T04:02:25.108Z,20.08
2019-02-06T04:02:57.924Z,20.15
2019-02-06T04:03:29.944Z,20.07
2019-02-06T04:04:03.730Z,20.1
2019-02-06T04:04:35.732Z,20.04
2019-02-06T04:05:07.739Z,20.04
2019-02-06T04:05:39.757Z,20.07
2019-02-06T04:06:11.958Z,20.04
2019-02-06T04:06:53.093Z,20.07
2019-02-06T04:07:34.341Z,20.04
2019-02-06T04:08:06.354Z,20.08
2019-02-06T04:08:39.944Z,20.05
2019-02-06T04:09:11.955Z,20.07
2019-02-06T04:09:43.967Z,20.11
2019-02-06T04:10:16.230Z,20.04
2019-02-06T04:10:48.250Z,20.1
2019-02-06T04:11:20.432Z,20.02
2019-02-06T04:11:52.445Z,20.04
2019-02-06T04:12:24.476Z,20.04
2019-02-06T04:12:56.488Z,20.04
2019-02-06T04:13:28.482Z,20.05
2019-02-06T04:14:00.493Z,20.04
2019-02-06T04:14:32.487Z,20
2019-02-06T04:15:04.859Z,20.02
2019-02-06T04:15:38.036Z,20.04
2019-02-06T04:16:10.078Z,20.01
2019-02-06T04:16:43.787Z,20.07
2019-02-06T04:17:15.879Z,20.02
2019-02-06T04:17:48.401Z,20.02
2019-02-06T04:18:20.412Z,20
2019-02-06T04:18:52.493Z,20.07
2019-02-06T04:19:24.497Z,20.04
2019-02-06T04:19:56.501Z,20.08
2019-02-06T04:20:28.497Z,20.05
2019-02-06T04:21:00.501Z,20.02
2019-02-06T04:21:32.507Z,19.98
2019-02-06T04:22:04.509Z,20.19
2019-02-06T04:22:36.511Z,20.01
2019-02-06T04:23:08.550Z,20.02
2019-02-06T04:23:40.667Z,20.04
2019-02-06T04:24:12.748Z,20.05
2019-02-06T04:24:46.162Z,20.01
2019-02-06T04:25:22.732Z,20
2019-02-06T04:25:56.204Z,20.02
2019-02-06T04:26:28.285Z,20.01
2019-02-06T04:27:01.133Z,20.04
2019-02-06T04:27:33.151Z,20.01
2019-02-06T04:28:05.161Z,20.04
2019-02-06T04:28:37.166Z,20.02
2019-02-06T04:29:09.194Z,20.08
2019-02-06T04:29:41.306Z,20
2019-02-06T04:30:13.321Z,20.08
2019-02-06T04:30:45.418Z,20.05
2019-02-06T04:31:17.552Z,20.01
2019-02-06T04:31:49.559Z,20.04
2019-02-06T04:32:23.392Z,20.04
2019-02-06T04:32:55.671Z,20.07
2019-02-06T04:33:27.699Z,19.98
2019-02-06T04:34:00.526Z,20.07
2019-02-06T04:34:32.550Z,20.05
2019-02-06T04:35:06.038Z,20.04
2019-02-06T04:35:38.092Z,20.04
2019-02-06T04:36:10.102Z,20.04
2019-02-06T04:36:42.107Z,20.08
2019-02-06T04:37:14.294Z,19.98
2019-02-06T04:37:46.517Z,20.05
2019-02-06T04:38:18.547Z,20.04
2019-02-06T04:38:50.661Z,19.97
2019-02-06T04:39:22.693Z,20.02
2019-02-06T04:39:54.695Z,20.02
2019-02-06T04:40:26.847Z,20.02
2019-02-06T04:40:58.859Z,20.04
2019-02-06T04:41:30.860Z,20.07
2019-02-06T04:42:03.411Z,20.04
2019-02-06T04:42:35.455Z,20.08
2019-02-06T04:43:08.938Z,20.04
2019-02-06T04:43:40.936Z,20.08
2019-02-06T04:44:12.951Z,20.02
2019-02-06T04:44:44.974Z,20.04
2019-02-06T04:45:16.984Z,20.01
2019-02-06T04:45:48.999Z,20
2019-02-06T04:46:20.986Z,20.07
2019-02-06T04:46:53.005Z,20.04
2019-02-06T04:47:25.012Z,20.04
2019-02-06T04:47:57.017Z,20.02
2019-02-06T04:48:32.079Z,20.02
2019-02-06T04:49:04.370Z,20.04
2019-02-06T04:49:36.380Z,20.05
2019-02-06T04:50:08.551Z,20.04
2019-02-06T04:50:40.577Z,20.04
2019-02-06T04:51:14.231Z,20.01
2019-02-06T04:51:46.427Z,20.04
2019-02-06T04:52:18.545Z,20.07
2019-02-06T04:52:50.564Z,20.08
2019-02-06T04:53:22.576Z,20.08
2019-02-06T04:53:54.707Z,20
2019-02-06T04:54:26.707Z,19.98
2019-02-06T04:54:58.731Z,20.07
2019-02-06T04:55:30.786Z,20
2019-02-06T04:56:02.806Z,20.04
2019-02-06T04:56:34.836Z,20.02
2019-02-06T04:57:09.410Z,20.07
2019-02-06T04:57:41.559Z,20.1
2019-02-06T04:58:13.561Z,20.02
2019-02-06T04:58:45.723Z,20
2019-02-06T04:59:19.023Z,20.05
2019-02-06T04:59:51.035Z,20.05
2019-02-06T05:00:24.246Z,20.04
2019-02-06T05:00:56.388Z,20.11
2019-02-06T05:01:28.369Z,20.05
2019-02-06T05:02:00.360Z,19.95
2019-02-06T05:02:32.386Z,20.04
2019-02-06T05:03:04.429Z,20.07
2019-02-06T05:03:36.451Z,20.1
2019-02-06T05:04:08.596Z,20.05
2019-02-06T05:04:40.646Z,20.07
2019-02-06T05:05:12.684Z,20.08
2019-02-06T05:05:44.763Z,20.05
2019-02-06T05:06:16.836Z,20.08
2019-02-06T05:06:48.863Z,19.93
2019-02-06T05:07:22.423Z,20.02
2019-02-06T05:07:54.443Z,20.05
2019-02-06T05:08:26.929Z,19.93
2019-02-06T05:08:58.944Z,20.07
2019-02-06T05:09:31.006Z,19.98
2019-02-06T05:10:03.017Z,20.01
2019-02-06T05:10:35.048Z,19.98
2019-02-06T05:11:07.095Z,20
2019-02-06T05:11:39.088Z,20
2019-02-06T05:12:11.101Z,19.97
2019-02-06T05:12:43.104Z,20.04
2019-02-06T05:13:15.087Z,20.01
2019-02-06T05:13:47.225Z,20.02
2019-02-06T05:14:19.700Z,20
2019-02-06T05:14:51.847Z,19.98
2019-02-06T05:15:25.448Z,20.07
2019-02-06T05:15:57.467Z,20.05
2019-02-06T05:16:29.473Z,20
2019-02-06T05:17:01.473Z,20.02
2019-02-06T05:17:33.467Z,20
2019-02-06T05:18:05.461Z,19.97
2019-02-06T05:18:37.475Z,20.04
2019-02-06T05:19:09.482Z,19.98
2019-02-06T05:19:41.479Z,20.01
2019-02-06T05:20:13.489Z,20.07
2019-02-06T05:20:45.547Z,20.05
2019-02-06T05:21:17.585Z,20.05
2019-02-06T05:21:49.613Z,20.01
2019-02-06T05:22:22.462Z,19.98
2019-02-06T05:22:54.481Z,20.04
2019-02-06T05:23:28.059Z,20
2019-02-06T05:24:00.064Z,20.01
2019-02-06T05:24:32.082Z,19.93
2019-02-06T05:25:04.091Z,20.05
2019-02-06T05:25:36.104Z,20
2019-02-06T05:26:08.113Z,20.04
2019-02-06T05:26:40.109Z,20.05
2019-02-06T05:27:12.138Z,20.01
2019-02-06T05:27:44.154Z,20.01
2019-02-06T05:28:18.110Z,20
2019-02-06T05:28:50.341Z,20.07
2019-02-06T05:29:22.351Z,20.08
2019-02-06T05:29:54.363Z,20.08
2019-02-06T05:30:27.343Z,20
2019-02-06T05:30:59.447Z,20.02
2019-02-06T05:31:32.875Z,20.02
2019-02-06T05:32:04.897Z,20
2019-02-06T05:32:36.913Z,19.97
2019-02-06T05:33:14.136Z,20.07
2019-02-06T05:33:46.151Z,19.97
2019-02-06T05:34:18.165Z,20.02
2019-02-06T05:34:50.175Z,20.01
2019-02-06T05:35:22.215Z,20.01
2019-02-06T05:35:54.219Z,20
2019-02-06T05:36:26.214Z,20.08
2019-02-06T05:36:58.218Z,20.05
2019-02-06T05:37:32.319Z,20.01
2019-02-06T05:38:04.485Z,19.98
2019-02-06T05:38:36.536Z,20.07
2019-02-06T05:39:08.595Z,19.98
2019-02-06T05:39:41.106Z,20.04
2019-02-06T05:40:13.137Z,20.05
2019-02-06T05:40:46.798Z,20.05
2019-02-06T05:41:18.896Z,20.08
2019-02-06T05:41:50.885Z,20.05
2019-02-06T05:42:22.895Z,20.05
2019-02-06T05:42:54.884Z,20.01
2019-02-06T05:43:26.893Z,20.05
2019-02-06T05:43:59.050Z,20.05
2019-02-06T05:44:31.192Z,20
2019-02-06T05:45:03.200Z,20.05
2019-02-06T05:45:35.200Z,19.95
2019-02-06T05:46:07.223Z,19.98
2019-02-06T05:46:39.345Z,19.95
2019-02-06T05:47:11.348Z,20.02
2019-02-06T05:47:44.831Z,20.07
2019-02-06T05:48:16.845Z,19.98
2019-02-06T05:48:49.757Z,20.01
2019-02-06T05:49:21.781Z,19.95
2019-02-06T05:49:53.854Z,20.01
2019-02-06T05:50:25.877Z,20.02
2019-02-06T05:50:57.899Z,19.98
2019-02-06T05:51:29.997Z,19.98
2019-02-06T05:52:02.012Z,20.07
2019-02-06T05:52:34.035Z,20.02
2019-02-06T05:53:06.059Z,20.08
2019-02-06T05:53:38.066Z,20
2019-02-06T05:54:10.088Z,20.04
2019-02-06T05:54:42.359Z,20
2019-02-06T05:55:14.383Z,19.98
2019-02-06T05:55:48.101Z,20.01
2019-02-06T05:56:20.155Z,20
2019-02-06T05:56:52.201Z,20.04
2019-02-06T05:57:24.187Z,19.93
2019-02-06T05:57:56.190Z,20
2019-02-06T05:58:28.187Z,19.98
2019-02-06T05:59:00.221Z,19.98
2019-02-06T05:59:32.257Z,20.02
2019-02-06T06:00:04.296Z,19.98
2019-02-06T06:00:36.303Z,20.04
2019-02-06T06:01:08.312Z,20
2019-02-06T06:01:40.311Z,20.05
2019-02-06T06:02:12.319Z,20.1
2019-02-06T06:02:45.626Z,20.04
2019-02-06T06:03:17.646Z,19.97
2019-02-06T06:03:50.746Z,20
2019-02-06T06:04:22.792Z,19.97
2019-02-06T06:04:54.907Z,19.97
2019-02-06T06:05:26.948Z,19.98
2019-02-06T06:05:59.010Z,20.01
2019-02-06T06:06:31.031Z,20
2019-02-06T06:07:03.060Z,19.92
2019-02-06T06:07:44.431Z,20
2019-02-06T06:08:17.472Z,20
2019-02-06T06:08:49.479Z,19.95
2019-02-06T06:09:21.498Z,19.95
2019-02-06T06:09:53.596Z,19.97
2019-02-06T06:10:25.634Z,19.87
2019-02-06T06:10:57.700Z,19.97
2019-02-06T06:11:29.735Z,20.01
2019-02-06T06:12:01.782Z,19.97
2019-02-06T06:12:33.821Z,19.95
2019-02-06T06:13:06.938Z,19.95
2019-02-06T06:13:38.962Z,19.97
2019-02-06T06:14:10.996Z,19.89
2019-02-06T06:14:43.010Z,20.01
2019-02-06T06:15:15.105Z,20
2019-02-06T06:15:47.117Z,19.87
2019-02-06T06:16:19.127Z,19.89
2019-02-06T06:16:51.143Z,20.04
2019-02-06T06:17:23.195Z,19.93
2019-02-06T06:17:55.198Z,20.01
2019-02-06T06:18:27.252Z,19.98
2019-02-06T06:18:59.252Z,19.93
2019-02-06T06:19:31.382Z,19.92
2019-02-06T06:20:04.653Z,19.93
2019-02-06T06:20:36.660Z,19.95
2019-02-06T06:21:09.637Z,19.9
2019-02-06T06:21:41.651Z,19.92
2019-02-06T06:22:13.675Z,19.98
2019-02-06T06:22:45.746Z,19.89
2019-02-06T06:23:17.778Z,20
2019-02-06T06:23:49.820Z,19.95
2019-02-06T06:24:22.010Z,19.93
2019-02-06T06:24:54.039Z,19.95
2019-02-06T06:25:26.051Z,19.87
2019-02-06T06:25:58.515Z,19.93
2019-02-06T06:26:30.550Z,19.97
2019-02-06T06:27:02.709Z,19.9
2019-02-06T06:27:34.724Z,19.97
2019-02-06T06:28:08.145Z,19.92
2019-02-06T06:28:40.163Z,19.93
2019-02-06T06:29:12.174Z,19.97
2019-02-06T06:29:44.165Z,19.9
2019-02-06T06:30:16.219Z,19.87
2019-02-06T06:30:48.243Z,19.89
2019-02-06T06:31:20.253Z,19.89
2019-02-06T06:31:52.300Z,20
2019-02-06T06:32:24.285Z,19.93
2019-02-06T06:32:56.310Z,19.97
2019-02-06T06:33:28.320Z,20.02
2019-02-06T06:34:00.343Z,19.93
2019-02-06T06:34:32.375Z,19.87
2019-02-06T06:35:05.640Z,19.98
2019-02-06T06:35:37.673Z,20.02
2019-02-06T06:36:11.237Z,19.98
2019-02-06T06:36:43.259Z,20
2019-02-06T06:37:15.393Z,19.97
2019-02-06T06:37:57.445Z,19.93
2019-02-06T06:38:34.556Z,19.9
2019-02-06T06:39:06.557Z,20
2019-02-06T06:39:40.007Z,19.93
2019-02-06T06:40:12.076Z,19.9
2019-02-06T06:40:45.333Z,20
2019-02-06T06:41:17.546Z,19.95
2019-02-06T06:41:50.965Z,19.95
2019-02-06T06:42:24.176Z,20
2019-02-06T06:42:56.942Z,19.97
2019-02-06T06:43:29.099Z,20.04
2019-02-06T06:44:01.488Z,20
2019-02-06T06:44:33.874Z,20.04
2019-02-06T06:45:05.985Z,19.89
2019-02-06T06:45:38.369Z,19.98
2019-02-06T06:46:12.290Z,20.01
2019-02-06T06:46:44.331Z,20
2019-02-06T06:47:16.322Z,19.92
2019-02-06T06:47:48.324Z,20.02
2019-02-06T06:48:20.364Z,19.97
2019-02-06T06:48:53.436Z,19.89
2019-02-06T06:49:25.453Z,20
2019-02-06T06:49:58.718Z,20.05
2019-02-06T06:50:30.780Z,19.93
2019-02-06T06:51:02.816Z,19.98
2019-02-06T06:51:34.820Z,19.97
2019-02-06T06:52:06.930Z,19.93
2019-02-06T06:52:38.957Z,19.97
2019-02-06T06:53:10.950Z,20.01
2019-02-06T06:53:42.945Z,20.01
2019-02-06T06:54:14.955Z,20.02
2019-02-06T06:54:46.950Z,19.97
2019-02-06T06:55:18.987Z,20
2019-02-06T06:55:51.134Z,20
2019-02-06T06:56:23.182Z,20.05
2019-02-06T06:56:56.214Z,20.02
2019-02-06T06:57:28.246Z,19.98
2019-02-06T06:58:01.601Z,19.98
2019-02-06T06:58:33.626Z,20.02
2019-02-06T06:59:05.644Z,20.01
2019-02-06T06:59:37.680Z,20.04